Time;durP1;ratioP1;P1;durP2;ratioP2;P2;SDS_P1;SDS_P2;PMS_P1;PMS_P2;Temp;Humidity;BMP_temperature;BMP_pressure;BME280_temperature;BME280_humidity;BME280_pressure;Samples;Min_cycle;Max_cycle;Signal;HPM_P1;HPM_P2
2022/09/28 00:00:09;;;;;;;6.00;3.05;;;7.80;99.90;;;;;;5068026;28;20375;-76
2022/09/28 00:02:34;;;;;;;4.32;2.97;;;7.80;99.90;;;;;;5069041;28;20033;-76
2022/09/28 00:05:01;;;;;;;6.17;3.37;;;7.70;99.90;;;;;;5073228;28;20400;-76
2022/09/28 00:07:28;;;;;;;7.00;3.78;;;7.70;99.90;;;;;;5045641;28;20499;-76
2022/09/28 00:09:54;;;;;;;6.80;3.83;;;7.70;99.90;;;;;;5054899;28;20414;-76
2022/09/28 00:12:22;;;;;;;6.90;4.00;;;7.70;99.90;;;;;;5062145;28;20039;-77
2022/09/28 00:14:48;;;;;;;6.85;3.65;;;7.80;99.90;;;;;;5062840;28;20038;-76
2022/09/28 00:17:15;;;;;;;7.50;3.80;;;7.70;99.90;;;;;;5047554;28;20508;-74
2022/09/28 00:19:42;;;;;;;5.82;3.70;;;7.70;99.90;;;;;;5055084;28;20321;-77
2022/09/28 00:22:08;;;;;;;6.45;3.58;;;7.80;99.90;;;;;;5066483;28;20057;-77
2022/09/28 00:24:34;;;;;;;5.60;4.05;;;7.80;99.90;;;;;;5076948;28;20042;-77
2022/09/28 00:27:01;;;;;;;6.70;3.92;;;7.80;99.90;;;;;;5073152;28;20083;-75
2022/09/28 00:29:31;;;;;;;7.88;4.30;;;7.80;99.90;;;;;;5066653;28;20664;-75
2022/09/28 00:32:14;;;;;;;7.93;4.18;;;7.90;99.90;;;;;;5075549;28;20042;-75
2022/09/28 00:34:44;;;;;;;7.82;4.82;;;7.80;99.90;;;;;;5073324;28;20042;-75
2022/09/28 00:37:12;;;;;;;8.05;4.97;;;7.90;99.90;;;;;;5081547;28;20040;-76
2022/09/28 00:39:40;;;;;;;7.20;4.40;;;7.90;99.90;;;;;;5072156;28;20117;-76
2022/09/28 00:42:20;;;;;;;8.43;4.38;;;7.90;99.90;;;;;;5058552;28;20049;-75
2022/09/28 00:44:50;;;;;;;8.60;4.32;;;7.90;99.90;;;;;;5067615;28;20428;-76
2022/09/28 00:47:24;;;;;;;6.50;4.43;;;7.90;99.90;;;;;;5065807;28;20040;-76
2022/09/28 00:50:14;;;;;;;7.57;4.88;;;7.90;99.90;;;;;;5070765;28;20054;-75
2022/09/28 00:52:46;;;;;;;8.40;4.38;;;7.90;99.90;;;;;;5078306;28;20049;-76
2022/09/28 00:55:16;;;;;;;7.60;4.50;;;7.90;99.90;;;;;;5073969;28;20042;-76
2022/09/28 00:57:47;;;;;;;8.52;4.53;;;7.90;99.90;;;;;;5068718;28;20513;-76
2022/09/28 01:00:13;;;;;;;6.60;4.85;;;7.90;99.90;;;;;;5070498;28;20125;-75
2022/09/28 01:02:39;;;;;;;7.00;4.35;;;7.90;99.90;;;;;;5066412;28;20113;-75
2022/09/28 01:05:06;;;;;;;10.25;4.40;;;7.90;99.90;;;;;;5069876;28;20087;-75
2022/09/28 01:07:33;;;;;;;7.25;4.47;;;7.90;99.90;;;;;;5077174;28;20042;-76
2022/09/28 01:09:59;;;;;;;6.68;4.28;;;8.40;99.90;;;;;;5076717;28;20089;-76
2022/09/28 01:12:25;;;;;;;7.68;4.18;;;7.80;99.90;;;;;;5075988;28;20137;-75
2022/09/28 01:14:51;;;;;;;7.07;4.10;;;7.80;99.90;;;;;;5077729;28;20454;-76
2022/09/28 01:17:34;;;;;;;;;;;7.70;99.90;;;;;;5062422;28;20230;-76
2022/09/28 01:20:38;;;;;;;6.60;3.90;;;7.70;99.90;;;;;;5068830;28;19962;-76
2022/09/28 01:23:22;;;;;;;5.25;3.80;;;7.60;99.90;;;;;;5063058;28;20041;-76
2022/09/28 01:26:17;;;;;;;7.50;3.95;;;7.50;99.90;;;;;;5083948;28;20656;-76
2022/09/28 01:28:44;;;;;;;8.98;4.10;;;7.50;99.90;;;;;;5050497;28;20048;-76
2022/09/28 01:31:16;;;;;;;7.90;4.50;;;7.50;99.90;;;;;;5062234;28;20059;-76
2022/09/28 01:34:01;;;;;;;6.40;4.60;;;7.40;99.90;;;;;;5082118;28;20524;-76
2022/09/28 01:36:33;;;;;;;8.57;5.30;;;7.40;99.90;;;;;;5063517;28;20028;-76
2022/09/28 01:39:09;;;;;;;8.20;5.10;;;7.40;99.90;;;;;;5081417;28;20116;-76
2022/09/28 01:41:39;;;;;;;9.23;5.10;;;7.40;99.90;;;;;;5083602;28;20922;-76
2022/09/28 01:44:09;;;;;;;8.70;5.60;;;7.40;99.90;;;;;;5081057;28;20039;-76
2022/09/28 01:46:45;;;;;;;11.35;5.38;;;7.30;99.90;;;;;;5059496;28;20480;-76
2022/09/28 01:49:21;;;;;;;9.00;5.22;;;7.30;99.90;;;;;;5078397;28;20049;-76
2022/09/28 01:51:58;;;;;;;9.50;5.68;;;7.30;99.90;;;;;;5082896;28;20044;-76
2022/09/28 01:54:37;;;;;;;9.27;5.10;;;7.30;99.90;;;;;;5076948;28;20134;-76
2022/09/28 01:57:18;;;;;;;15.35;7.80;;;7.20;99.90;;;;;;5060528;28;20040;-76
2022/09/28 01:59:56;;;;;;;11.57;5.97;;;7.20;99.90;;;;;;5079851;28;20086;-76
2022/09/28 02:02:38;;;;;;;11.52;6.00;;;7.40;99.90;;;;;;5076676;28;20044;-76
2022/09/28 02:05:14;;;;;;;9.93;5.88;;;7.10;99.90;;;;;;5084802;28;20114;-76
2022/09/28 02:08:02;;;;;;;11.25;6.45;;;7.10;99.90;;;;;;5081526;28;20051;-76
2022/09/28 02:10:36;;;;;;;10.88;5.22;;;7.00;99.90;;;;;;5070810;28;20474;-76
2022/09/28 02:13:16;;;;;;;8.30;5.90;;;6.90;99.90;;;;;;5074561;28;20111;-75
2022/09/28 02:15:52;;;;;;;10.68;6.03;;;7.00;99.90;;;;;;5064782;28;20080;-75
2022/09/28 02:18:18;;;;;;;11.98;6.65;;;7.00;99.90;;;;;;5085822;28;20347;-75
2022/09/28 02:20:56;;;;;;;19.45;7.80;;;7.10;99.90;;;;;;5082421;28;20062;-76
2022/09/28 02:23:25;;;;;;;24.70;8.07;;;7.10;99.90;;;;;;5086227;28;20097;-76
2022/09/28 02:25:57;;;;;;;100.72;9.55;;;7.20;99.90;;;;;;5065865;28;20526;-76
2022/09/28 02:28:23;;;;;;;118.32;12.40;;;7.20;99.90;;;;;;5077470;28;20441;-76
2022/09/28 02:30:49;;;;;;;82.27;9.67;;;7.30;99.90;;;;;;5037523;28;20123;-76
2022/09/28 02:33:20;;;;;;;101.85;9.45;;;7.30;99.90;;;;;;5077849;28;20056;-76
2022/09/28 02:35:46;;;;;;;160.38;12.85;;;7.80;99.90;;;;;;5084398;28;20048;-76
2022/09/28 02:38:13;;;;;;;178.85;13.65;;;8.00;99.90;;;;;;5080030;28;20097;-75
2022/09/28 02:40:39;;;;;;;157.48;11.88;;;7.40;99.90;;;;;;5043617;28;20051;-76
2022/09/28 02:43:14;;;;;;;;;;;7.70;99.90;;;;;;5080720;28;20425;-76
2022/09/28 02:46:14;;;;;;;180.88;11.23;;;7.40;99.90;;;;;;5080081;28;20107;-75
2022/09/28 02:49:04;;;;;;;242.15;13.40;;;7.40;99.90;;;;;;5074913;28;20040;-76
2022/09/28 02:52:10;;;;;;;196.82;11.70;;;7.30;99.90;;;;;;5077548;28;20446;-76
2022/09/28 02:55:05;;;;;;;205.75;11.35;;;7.30;99.90;;;;;;5068203;28;20119;-76
2022/09/28 02:57:31;;;;;;;195.00;12.07;;;7.30;99.90;;;;;;5084975;28;20118;-75
2022/09/28 03:00:10;;;;;;;149.57;9.13;;;7.20;99.90;;;;;;5077472;28;20135;-76
2022/09/28 03:03:00;;;;;;;158.75;9.93;;;7.20;99.90;;;;;;5074871;28;20064;-76
2022/09/28 03:05:44;;;;;;;162.80;10.27;;;7.10;99.90;;;;;;5078947;28;20043;-76
2022/09/28 03:08:28;;;;;;;111.15;9.15;;;7.10;99.90;;;;;;5074610;28;20040;-76
2022/09/28 03:11:27;;;;;;;138.23;9.90;;;7.20;99.90;;;;;;5078767;28;20044;-76
2022/09/28 03:13:54;;;;;;;99.70;7.88;;;7.00;99.90;;;;;;5073634;28;20047;-77
2022/09/28 03:16:20;;;;;;;60.47;6.40;;;7.10;99.90;;;;;;5065793;28;20040;-76
2022/09/28 03:18:46;;;;;;;86.03;7.28;;;7.10;99.90;;;;;;5079772;28;20084;-76
2022/09/28 03:21:13;;;;;;;81.85;7.50;;;6.90;99.90;;;;;;5059329;28;20039;-76
2022/09/28 03:23:39;;;;;;;58.85;6.18;;;7.30;99.90;;;;;;5058628;28;20040;-76
2022/09/28 03:26:11;;;;;;;;;;;6.80;99.90;;;;;;5077896;28;20032;-77
2022/09/28 03:28:37;;;;;;;51.30;6.55;;;6.70;99.90;;;;;;5081228;28;20385;-77
2022/09/28 03:31:03;;;;;;;29.15;5.50;;;6.60;99.90;;;;;;5083435;28;20040;-77
2022/09/28 03:33:29;;;;;;;33.28;6.07;;;6.60;99.90;;;;;;5074109;28;20432;-77
2022/09/28 03:35:55;;;;;;;37.63;6.30;;;6.60;99.90;;;;;;5067178;28;20069;-77
2022/09/28 03:38:20;;;;;;;37.33;5.60;;;6.50;99.90;;;;;;5087338;28;20460;-77
2022/09/28 03:40:55;;;;;;;34.50;5.38;;;6.50;99.90;;;;;;5074568;28;20055;-76
2022/09/28 03:43:20;;;;;;;45.50;6.70;;;6.50;99.90;;;;;;5073803;28;20044;-77
2022/09/28 03:45:58;;;;;;;39.17;6.15;;;6.40;99.90;;;;;;5079354;28;20516;-77
2022/09/28 03:48:25;;;;;;;83.22;8.57;;;6.50;99.90;;;;;;5078794;28;20037;-77
2022/09/28 03:50:53;;;;;;;39.17;6.47;;;6.60;99.90;;;;;;5063908;28;20044;-77
2022/09/28 03:53:19;;;;;;;88.60;8.40;;;6.40;99.90;;;;;;5084111;28;20520;-77
2022/09/28 03:55:44;;;;;;;88.47;8.48;;;6.40;99.90;;;;;;5050530;28;20044;-77
2022/09/28 03:58:10;;;;;;;73.80;6.93;;;6.40;99.90;;;;;;5066430;28;20513;-77
2022/09/28 04:00:37;;;;;;;58.83;6.10;;;6.40;99.90;;;;;;5063799;28;20036;-77
2022/09/28 04:03:03;;;;;;;117.60;9.75;;;6.40;99.90;;;;;;5084150;28;20036;-78
2022/09/28 04:05:29;;;;;;;75.50;7.47;;;6.40;99.90;;;;;;5079632;28;20032;-76
2022/09/28 04:07:56;;;;;;;135.00;9.88;;;6.40;99.90;;;;;;5065377;28;20490;-76
2022/09/28 04:10:23;;;;;;;122.53;9.65;;;6.40;99.90;;;;;;5080119;28;20490;-77
2022/09/28 04:12:49;;;;;;;;;;;6.50;99.90;;;;;;5076586;28;20055;-77
2022/09/28 04:15:15;;;;;;;77.82;8.00;;;6.40;99.90;;;;;;5080309;28;19941;-77
2022/09/28 04:17:41;;;;;;;101.75;8.20;;;6.40;99.90;;;;;;5063677;28;20045;-77
2022/09/28 04:20:07;;;;;;;129.10;10.52;;;6.30;99.90;;;;;;5075949;28;20028;-79
2022/09/28 04:22:36;;;;;;;57.95;6.70;;;6.30;99.90;;;;;;5083796;28;20036;-77
2022/09/28 04:25:03;;;;;;;142.98;9.80;;;6.30;99.90;;;;;;5062293;28;20045;-77
2022/09/28 04:30:13;;;;;;;88.30;8.65;;;6.30;99.90;;;;;;5077602;28;20046;-76
2022/09/28 04:32:39;;;;;;;143.88;12.25;;;6.20;99.90;;;;;;5078071;28;20059;-76
2022/09/28 04:35:05;;;;;;;112.90;10.40;;;6.20;99.90;;;;;;5070910;28;20037;-76
2022/09/28 04:37:31;;;;;;;42.13;6.18;;;6.20;99.90;;;;;;5066879;28;20475;-76
2022/09/28 04:39:56;;;;;;;39.13;6.17;;;6.20;99.90;;;;;;5045717;28;20034;-76
2022/09/28 04:42:22;;;;;;;76.50;7.83;;;6.20;99.90;;;;;;5059134;28;20171;-76
2022/09/28 04:44:48;;;;;;;51.27;7.60;;;6.10;99.90;;;;;;5075742;28;20289;-77
2022/09/28 04:47:13;;;;;;;64.57;7.23;;;6.00;99.90;;;;;;5062736;28;20038;-76
2022/09/28 04:49:39;;;;;;;62.47;7.07;;;6.00;99.90;;;;;;5073245;28;20065;-77
2022/09/28 04:52:05;;;;;;;57.57;6.70;;;6.00;99.90;;;;;;5085324;28;20892;-77
2022/09/28 04:54:31;;;;;;;53.75;7.40;;;6.00;99.90;;;;;;5074033;28;20334;-76
2022/09/28 04:56:57;;;;;;;44.30;7.30;;;6.00;99.90;;;;;;5069018;28;20034;-78
2022/09/28 04:59:23;;;;;;;52.25;8.60;;;6.00;99.90;;;;;;5067598;28;20117;-78
2022/09/28 05:01:49;;;;;;;44.67;7.00;;;6.00;99.90;;;;;;5069572;28;20325;-78
2022/09/28 05:04:15;;;;;;;38.17;5.80;;;6.00;99.90;;;;;;5069876;28;20040;-78
2022/09/28 05:06:40;;;;;;;17.38;5.20;;;6.00;99.90;;;;;;5073460;28;20030;-78
2022/09/28 05:09:08;;;;;;;27.73;6.97;;;6.00;99.90;;;;;;5059515;28;20042;-77
2022/09/28 05:11:34;;;;;;;11.95;5.88;;;6.00;99.90;;;;;;5077483;28;20036;-78
2022/09/28 05:14:00;;;;;;;8.90;5.55;;;6.00;99.90;;;;;;5071122;28;20045;-78
2022/09/28 05:16:26;;;;;;;9.38;5.72;;;6.00;99.90;;;;;;5070362;28;20042;-78
2022/09/28 05:18:55;;;;;;;;;;;6.00;99.90;;;;;;5061665;28;20085;-77
2022/09/28 05:21:24;;;;;;;12.45;6.80;;;6.10;99.90;;;;;;5078945;28;20370;-77
2022/09/28 05:23:50;;;;;;;9.13;6.50;;;6.10;99.90;;;;;;5074307;28;20045;-77
2022/09/28 05:26:16;;;;;;;10.40;6.35;;;6.30;99.90;;;;;;5070282;28;20034;-77
2022/09/28 05:28:41;;;;;;;8.38;5.80;;;6.10;99.90;;;;;;5068356;28;20108;-78
2022/09/28 05:31:07;;;;;;;9.70;6.55;;;6.10;99.90;;;;;;5073568;28;20038;-78
2022/09/28 05:33:33;;;;;;;10.23;6.18;;;6.10;99.90;;;;;;5088007;28;20461;-78
2022/09/28 05:35:59;;;;;;;9.60;6.30;;;6.20;99.90;;;;;;5069178;28;20069;-77
2022/09/28 05:38:25;;;;;;;9.80;6.15;;;6.20;99.90;;;;;;5065879;28;20042;-77
2022/09/28 05:40:51;;;;;;;10.13;6.22;;;6.60;99.90;;;;;;5071542;28;20381;-77
2022/09/28 05:43:17;;;;;;;8.73;6.00;;;6.20;99.90;;;;;;5077637;28;20044;-77
2022/09/28 05:45:43;;;;;;;9.45;5.93;;;6.20;99.90;;;;;;5073242;28;20407;-77
2022/09/28 05:48:08;;;;;;;10.77;6.93;;;6.20;99.90;;;;;;5058566;28;20474;-78
2022/09/28 05:50:34;;;;;;;9.13;5.72;;;6.30;99.90;;;;;;5081713;28;20044;-78
2022/09/28 05:53:05;;;;;;;12.48;6.47;;;6.40;99.90;;;;;;5070764;28;20500;-78
2022/09/28 05:55:31;;;;;;;10.63;6.40;;;6.30;99.90;;;;;;5076754;28;20454;-78
2022/09/28 05:58:02;;;;;;;18.88;7.45;;;6.30;99.90;;;;;;5075876;28;20050;-78
2022/09/28 06:00:28;;;;;;;17.08;7.20;;;6.30;99.90;;;;;;5068181;28;20034;-78
2022/09/28 06:02:55;;;;;;;;;;;6.30;99.90;;;;;;5076852;28;20038;-78
2022/09/28 06:05:20;;;;;;;39.25;7.40;;;6.80;99.90;;;;;;5075977;28;19971;-78
2022/09/28 06:07:46;;;;;;;36.73;8.10;;;6.40;99.90;;;;;;5075901;28;20046;-78
2022/09/28 06:10:11;;;;;;;40.37;7.63;;;6.30;99.90;;;;;;5037509;28;20042;-78
2022/09/28 06:12:37;;;;;;;35.10;7.57;;;6.40;99.90;;;;;;5078759;28;20054;-78
2022/09/28 06:15:03;;;;;;;38.13;7.57;;;6.40;99.90;;;;;;5062998;28;20032;-78
2022/09/28 06:17:29;;;;;;;34.95;8.30;;;6.40;99.90;;;;;;5054857;28;20126;-79
2022/09/28 06:19:55;;;;;;;22.87;7.43;;;6.50;99.90;;;;;;5067518;28;20116;-78
2022/09/28 06:22:20;;;;;;;68.00;9.18;;;6.80;99.90;;;;;;5058559;28;20040;-79
2022/09/28 06:24:46;;;;;;;30.17;7.77;;;6.70;99.90;;;;;;5021311;28;20034;-78
2022/09/28 06:27:11;;;;;;;21.47;7.63;;;6.80;99.90;;;;;;5055615;28;20046;-77
2022/09/28 06:29:37;;;;;;;36.30;8.57;;;6.90;99.90;;;;;;5031899;28;20415;-77
2022/09/28 06:32:03;;;;;;;51.17;9.30;;;7.00;99.90;;;;;;5060423;28;20038;-77
2022/09/28 06:34:29;;;;;;;42.93;8.77;;;7.00;99.90;;;;;;5044711;28;20054;-77
2022/09/28 06:36:54;;;;;;;30.67;8.00;;;7.10;99.90;;;;;;5078945;28;20788;-78
2022/09/28 06:39:20;;;;;;;49.33;8.13;;;7.20;99.90;;;;;;5082037;28;20042;-78
2022/09/28 06:41:46;;;;;;;72.40;9.55;;;7.40;99.90;;;;;;5062604;28;20049;-77
2022/09/28 06:44:14;;;;;;;46.28;9.20;;;7.30;99.90;;;;;;5067048;28;20083;-77
2022/09/28 06:46:39;;;;;;;43.17;9.23;;;7.30;99.90;;;;;;5025666;28;20047;-80
2022/09/28 06:49:08;;;;;;;48.38;9.43;;;8.30;99.90;;;;;;5063276;28;20050;-78
2022/09/28 06:51:34;;;;;;;71.07;10.35;;;7.40;99.90;;;;;;5067662;28;20393;-77
2022/09/28 06:54:00;;;;;;;;;;;7.40;99.90;;;;;;5064814;28;20114;-77
2022/09/28 06:56:27;;;;;;;100.22;12.23;;;7.50;99.90;;;;;;5049337;28;19917;-78
2022/09/28 06:58:52;;;;;;;84.32;10.57;;;7.40;99.90;;;;;;5059060;28;20046;-77
2022/09/28 07:01:18;;;;;;;61.95;9.93;;;7.50;99.90;;;;;;5065690;28;20095;-78
2022/09/28 07:03:44;;;;;;;77.40;13.48;;;7.50;99.90;;;;;;5078825;28;20042;-78
2022/09/28 07:06:11;;;;;;;72.93;13.10;;;7.50;99.90;;;;;;5051351;28;20038;-77
2022/09/28 07:08:37;;;;;;;82.25;13.38;;;7.60;99.90;;;;;;5045769;28;20095;-78
2022/09/28 07:11:06;;;;;;;77.30;12.90;;;7.60;99.90;;;;;;5050208;28;20050;-78
2022/09/28 07:13:33;;;;;;;37.20;10.43;;;7.70;99.90;;;;;;5065949;28;20044;-78
2022/09/28 07:15:58;;;;;;;55.05;11.00;;;7.80;99.90;;;;;;5053681;28;20420;-78
2022/09/28 07:18:25;;;;;;;92.55;12.30;;;7.80;99.90;;;;;;5076043;28;20037;-77
2022/09/28 07:20:51;;;;;;;104.47;13.55;;;7.90;99.90;;;;;;5048524;28;20038;-78
2022/09/28 07:23:17;;;;;;;61.83;11.23;;;8.00;99.90;;;;;;5072811;28;20032;-77
2022/09/28 07:25:47;;;;;;;86.90;12.02;;;8.00;99.90;;;;;;5060035;28;20502;-77
2022/09/28 07:28:13;;;;;;;48.08;10.75;;;8.10;99.90;;;;;;5064593;28;20057;-77
2022/09/28 07:30:39;;;;;;;130.18;14.35;;;8.20;99.90;;;;;;5072061;28;20043;-77
2022/09/28 07:33:08;;;;;;;64.47;11.43;;;8.30;99.90;;;;;;5063347;28;20491;-78
2022/09/28 07:35:34;;;;;;;47.65;10.40;;;8.30;99.90;;;;;;5072177;28;20042;-77
2022/09/28 07:38:05;;;;;;;90.87;11.00;;;8.50;99.90;;;;;;5080435;28;20403;-78
2022/09/28 07:43:20;;;;;;;37.88;10.13;;;8.40;99.90;;;;;;5065172;28;20161;-78
2022/09/28 07:45:47;;;;;;;58.67;11.00;;;8.70;99.90;;;;;;5066139;28;20046;-78
2022/09/28 07:48:17;;;;;;;87.78;11.43;;;8.80;99.90;;;;;;5051706;28;20046;-78
2022/09/28 07:51:01;;;;;;;77.82;11.60;;;9.30;99.90;;;;;;5065808;28;20050;-78
2022/09/28 07:53:27;;;;;;;67.20;10.65;;;9.10;99.90;;;;;;5045289;28;20042;-78
2022/09/28 07:56:03;;;;;;;95.75;11.43;;;9.20;99.90;;;;;;5074022;28;20050;-79
2022/09/28 07:58:31;;;;;;;12.95;9.32;;;9.30;99.90;;;;;;5056881;28;20494;-78
2022/09/28 08:00:59;;;;;;;13.82;8.30;;;9.50;99.90;;;;;;5068968;28;20110;-78
2022/09/28 08:03:26;;;;;;;12.70;8.23;;;10.10;99.90;;;;;;5069758;28;20101;-78
2022/09/28 08:06:02;;;;;;;;;;;10.40;99.90;;;;;;5083254;28;20067;-78
2022/09/28 08:08:28;;;;;;;9.52;7.65;;;10.70;99.90;;;;;;5079396;28;19932;-78
2022/09/28 08:10:55;;;;;;;9.70;7.88;;;10.90;99.90;;;;;;5066629;28;20101;-78
2022/09/28 08:13:24;;;;;;;11.43;7.45;;;10.90;99.90;;;;;;5077448;28;20045;-78
2022/09/28 08:15:53;;;;;;;9.05;7.10;;;11.00;99.90;;;;;;5063307;28;20478;-78
2022/09/28 08:18:20;;;;;;;9.48;7.28;;;11.20;99.90;;;;;;5070999;28;20049;-77
2022/09/28 08:23:30;;;;;;;8.80;6.93;;;12.00;99.90;;;;;;5080376;28;20688;-78
2022/09/28 08:25:56;;;;;;;7.72;6.15;;;12.50;99.90;;;;;;5089651;28;20030;-78
2022/09/28 08:28:23;;;;;;;7.57;5.82;;;13.20;99.90;;;;;;5078031;28;20129;-78
2022/09/28 08:30:49;;;;;;;6.97;6.00;;;13.80;99.90;;;;;;5097936;28;20049;-78
2022/09/28 08:33:16;;;;;;;7.65;6.50;;;14.20;99.90;;;;;;5054972;28;20073;-79
2022/09/28 08:35:44;;;;;;;7.47;6.20;;;14.10;99.90;;;;;;5083741;28;20127;-78
2022/09/28 08:38:10;;;;;;;6.25;5.28;;;14.00;99.90;;;;;;5068060;28;20070;-77
2022/09/28 08:40:47;;;;;;;6.70;5.85;;;13.70;99.90;;;;;;5046711;28;20507;-77
2022/09/28 08:43:30;;;;;;;6.68;5.93;;;13.80;99.90;;;;;;5077392;28;20046;-77
2022/09/28 08:45:58;;;;;;;6.78;5.88;;;14.30;99.90;;;;;;5065671;28;20115;-78
2022/09/28 08:48:47;;;;;;;7.20;5.63;;;15.00;99.90;;;;;;5050945;28;20423;-77
2022/09/28 08:51:27;;;;;;;6.32;5.38;;;16.00;99.90;;;;;;5091287;28;20036;-78
2022/09/28 08:54:08;;;;;;;5.35;4.85;;;16.80;99.90;;;;;;5058777;28;20133;-78
2022/09/28 08:57:02;;;;;;;5.97;4.80;;;17.30;99.90;;;;;;5075600;28;20041;-77
2022/09/28 08:59:51;;;;;;;5.43;4.65;;;17.80;99.90;;;;;;5065158;28;20034;-77
2022/09/28 09:02:35;;;;;;;5.20;4.07;;;18.20;99.90;;;;;;5051566;28;20038;-77
2022/09/28 09:05:04;;;;;;;3.47;3.15;;;18.80;99.90;;;;;;5080528;28;20186;-78
2022/09/28 09:08:05;;;;;;;3.40;2.55;;;19.20;99.90;;;;;;5075217;28;20094;-78
2022/09/28 09:10:34;;;;;;;3.53;2.30;;;19.60;99.90;;;;;;5030988;28;20066;-77
2022/09/28 09:13:10;;;;;;;3.35;2.38;;;19.80;99.90;;;;;;5064889;28;20064;-78
2022/09/28 09:16:00;;;;;;;4.13;2.70;;;20.20;99.90;;;;;;5065711;28;20039;-78
2022/09/28 09:18:52;;;;;;;2.95;2.65;;;21.00;99.90;;;;;;5016473;28;20050;-78
2022/09/28 09:21:37;;;;;;;3.67;2.50;;;21.30;99.90;;;;;;5059867;28;20041;-78
2022/09/28 09:24:24;;;;;;;3.95;2.50;;;21.10;99.90;;;;;;5075281;28;20503;-78
2022/09/28 09:27:26;;;;;;;2.75;2.50;;;20.80;99.90;;;;;;5065041;28;20107;-78
2022/09/28 09:30:10;;;;;;;4.95;2.72;;;20.90;99.90;;;;;;5028342;28;20086;-78
2022/09/28 09:33:03;;;;;;;3.53;2.30;;;20.10;99.90;;;;;;5079576;28;20057;-78
2022/09/28 09:35:53;;;;;;;3.40;2.00;;;19.30;99.90;;;;;;5023739;28;20518;-77
2022/09/28 09:38:19;;;;;;;5.03;2.38;;;18.70;99.90;;;;;;5068767;28;20034;-78
2022/09/28 09:40:55;;;;;;;;;;;19.30;99.90;;;;;;5068788;28;20138;-78
2022/09/28 09:44:16;;;;;;;3.28;1.75;;;19.40;99.90;;;;;;5067530;28;19919;-77
2022/09/28 09:47:06;;;;;;;3.10;1.90;;;20.30;99.90;;;;;;4976252;28;20042;-77
2022/09/28 09:49:41;;;;;;;3.33;2.35;;;20.70;99.90;;;;;;4992088;28;20644;-76
2022/09/28 09:52:17;;;;;;;4.20;1.90;;;21.10;99.90;;;;;;5039739;28;20125;-77
2022/09/28 09:55:06;;;;;;;2.70;1.90;;;20.90;99.90;;;;;;5071307;28;20498;-77
2022/09/28 09:57:49;;;;;;;3.33;1.50;;;21.40;99.90;;;;;;5065759;28;20488;-77
2022/09/28 10:00:17;;;;;;;2.25;1.50;;;21.40;99.90;;;;;;5079878;28;20033;-78
2022/09/28 10:02:47;;;;;;;6.90;2.30;;;20.90;99.90;;;;;;5069289;28;20495;-78
2022/09/28 10:05:12;;;;;;;3.50;1.70;;;20.10;99.90;;;;;;5070009;28;20038;-78
2022/09/28 10:07:57;;;;;;;2.58;1.05;;;19.60;99.90;;;;;;5082534;28;20102;-78
2022/09/28 10:10:34;;;;;;;2.53;0.65;;;18.90;99.90;;;;;;5053882;28;20042;-78
2022/09/28 10:13:00;;;;;;;1.85;0.50;;;18.30;99.90;;;;;;5070706;28;20034;-77
2022/09/28 10:15:31;;;;;;;2.35;0.60;;;18.10;99.90;;;;;;5069739;28;20057;-78
2022/09/28 10:18:01;;;;;;;1.35;0.40;;;18.10;99.90;;;;;;5064057;28;20039;-77
2022/09/28 10:20:33;;;;;;;2.42;0.70;;;18.10;99.90;;;;;;5066671;28;20088;-78
2022/09/28 10:23:01;;;;;;;3.83;0.60;;;17.90;99.90;;;;;;5069438;28;20097;-78
2022/09/28 10:25:32;;;;;;;2.08;0.50;;;17.70;99.90;;;;;;5084917;28;20432;-78
2022/09/28 10:28:00;;;;;;;1.77;0.50;;;17.40;99.90;;;;;;5060032;28;20048;-77
2022/09/28 10:30:26;;;;;;;0.95;0.35;;;17.40;99.90;;;;;;5004902;28;20030;-77
2022/09/28 10:32:58;;;;;;;2.58;0.30;;;17.30;99.90;;;;;;5020653;28;20047;-77
2022/09/28 10:35:38;;;;;;;1.58;0.40;;;17.20;99.90;;;;;;5060027;28;20068;-77
2022/09/28 10:38:23;;;;;;;1.52;0.60;;;17.20;99.90;;;;;;5000484;28;20037;-78
2022/09/28 10:41:00;;;;;;;1.45;0.68;;;17.40;99.90;;;;;;4996901;28;20508;-77
2022/09/28 10:43:30;;;;;;;1.88;0.50;;;17.70;99.90;;;;;;5025964;28;20082;-77
2022/09/28 10:46:10;;;;;;;1.23;0.60;;;17.80;99.90;;;;;;5018116;28;20122;-77
2022/09/28 10:48:48;;;;;;;0.80;0.40;;;17.80;99.90;;;;;;5049345;28;20059;-77
2022/09/28 10:51:15;;;;;;;2.83;0.40;;;17.70;99.90;;;;;;5030509;28;20410;-76
2022/09/28 10:53:40;;;;;;;0.40;0.20;;;17.70;99.90;;;;;;5025081;28;20061;-77
2022/09/28 10:56:36;;;;;;;2.78;0.30;;;17.60;99.90;;;;;;4991184;28;20384;-77
2022/09/28 10:59:21;;;;;;;1.42;0.30;;;17.80;99.90;;;;;;4987911;28;20396;-77
2022/09/28 11:01:47;;;;;;;1.33;0.20;;;18.60;99.90;;;;;;5003319;28;20041;-77
2022/09/28 11:04:20;;;;;;;1.52;0.30;;;19.90;99.90;;;;;;5012607;28;20032;-78
2022/09/28 11:06:46;;;;;;;2.05;0.17;;;21.00;99.90;;;;;;4998012;28;20134;-77
2022/09/28 11:09:30;;;;;;;1.23;0.28;;;21.90;99.90;;;;;;5017419;28;20083;-77
2022/09/28 11:12:02;;;;;;;1.55;0.20;;;21.70;98.90;;;;;;5065004;28;20047;-78
2022/09/28 11:14:36;;;;;;;1.10;0.30;;;21.20;99.90;;;;;;4997948;28;20077;-78
2022/09/28 11:17:37;;;;;;;1.17;0.40;;;21.00;99.90;;;;;;5031044;28;20116;-77
2022/09/28 11:20:41;;;;;;;2.15;0.40;;;21.80;99.90;;;;;;5061049;28;20494;-78
2022/09/28 11:23:28;;;;;;;1.70;0.40;;;22.80;98.90;;;;;;4973090;28;20065;-78
2022/09/28 11:25:58;;;;;;;;;;;23.20;98.30;;;;;;4973382;28;20065;-78
2022/09/28 11:28:31;;;;;;;0.85;0.30;;;23.80;96.90;;;;;;5032894;28;20305;-78
2022/09/28 11:30:58;;;;;;;2.25;0.40;;;24.30;97.10;;;;;;5076390;28;20125;-78
2022/09/28 11:33:43;;;;;;;1.48;0.45;;;23.70;95.40;;;;;;5079292;28;20071;-78
2022/09/28 11:36:12;;;;;;;0.50;0.20;;;23.80;96.20;;;;;;5089049;28;20062;-78
2022/09/28 11:38:51;;;;;;;1.55;0.20;;;23.30;95.90;;;;;;5084738;28;20040;-78
2022/09/28 11:41:35;;;;;;;0.68;0.20;;;23.00;95.60;;;;;;5076655;28;20040;-77
2022/09/28 11:44:32;;;;;;;0.30;0.10;;;22.50;95.60;;;;;;5079830;28;20140;-77
2022/09/28 11:47:25;;;;;;;0.38;0.10;;;21.80;95.50;;;;;;5077957;28;20040;-76
2022/09/28 11:50:00;;;;;;;1.08;0.20;;;21.10;96.00;;;;;;5086764;28;20555;-78
2022/09/28 11:52:46;;;;;;;1.23;0.20;;;20.60;97.10;;;;;;5087244;28;20039;-77
2022/09/28 11:55:20;;;;;;;0.38;0.10;;;20.10;98.00;;;;;;5083489;28;20051;-78
2022/09/28 11:57:55;;;;;;;1.33;0.28;;;19.60;99.90;;;;;;5076960;28;20491;-78
2022/09/28 12:00:22;;;;;;;1.23;0.20;;;19.20;99.90;;;;;;5074509;28;20062;-78
2022/09/28 12:02:59;;;;;;;1.00;0.20;;;19.10;99.90;;;;;;5062290;28;20041;-78
2022/09/28 12:05:36;;;;;;;1.45;0.30;;;18.90;99.90;;;;;;5056768;28;20045;-77
2022/09/28 12:08:24;;;;;;;0.85;0.22;;;18.80;99.90;;;;;;5070774;28;20398;-77
2022/09/28 12:11:02;;;;;;;2.67;0.30;;;18.60;99.90;;;;;;5103794;28;20052;-77
2022/09/28 12:13:34;;;;;;;1.30;0.35;;;18.60;99.90;;;;;;5081841;28;21002;-77
2022/09/28 12:16:07;;;;;;;2.22;0.40;;;19.40;99.90;;;;;;5072674;28;20118;-78
2022/09/28 12:18:40;;;;;;;1.00;0.20;;;20.40;99.90;;;;;;5077483;28;20097;-78
2022/09/28 12:21:27;;;;;;;1.00;0.32;;;20.50;99.90;;;;;;5087631;28;20043;-77
2022/09/28 12:23:58;;;;;;;0.95;0.20;;;21.00;99.90;;;;;;5062505;28;20028;-77
2022/09/28 12:26:44;;;;;;;1.48;0.10;;;21.40;99.90;;;;;;5079114;28;20551;-77
2022/09/28 12:29:22;;;;;;;1.38;0.20;;;20.80;98.80;;;;;;5018627;28;20486;-77
2022/09/28 12:32:01;;;;;;;0.73;0.10;;;20.70;99.60;;;;;;5038575;28;20079;-77
2022/09/28 12:34:27;;;;;;;0.80;0.10;;;20.30;99.90;;;;;;5002388;28;20078;-77
2022/09/28 12:37:11;;;;;;;0.40;0.10;;;20.00;99.90;;;;;;5028444;28;20102;-77
2022/09/28 12:39:52;;;;;;;0.60;0.10;;;19.80;99.90;;;;;;5028614;28;20307;-77
2022/09/28 12:42:31;;;;;;;0.68;0.10;;;19.40;99.90;;;;;;4996193;28;20121;-77
2022/09/28 12:45:26;;;;;;;0.22;0.10;;;18.80;99.90;;;;;;5015661;28;20034;-77
2022/09/28 12:47:58;;;;;;;1.75;0.20;;;18.20;99.90;;;;;;5048248;28;20080;-78
2022/09/28 12:50:53;;;;;;;0.40;0.03;;;17.60;99.90;;;;;;5011004;28;20038;-78
2022/09/28 12:53:30;;;;;;;0.25;0.00;;;17.50;99.90;;;;;;5003356;28;20036;-77
2022/09/28 12:56:10;;;;;;;0.00;0.00;;;17.00;99.90;;;;;;5013767;28;20081;-78
2022/09/28 12:59:09;;;;;;;1.63;0.10;;;16.70;99.90;;;;;;5018092;28;20045;-78
2022/09/28 13:01:52;;;;;;;0.20;0.00;;;16.70;99.90;;;;;;4977720;28;20130;-78
2022/09/28 13:04:44;;;;;;;0.38;0.00;;;16.70;99.90;;;;;;5003178;28;20425;-78
2022/09/28 13:07:22;;;;;;;0.10;0.00;;;16.60;99.90;;;;;;5017909;28;20044;-77
2022/09/28 13:09:53;;;;;;;0.30;0.00;;;16.50;99.90;;;;;;5000008;28;20042;-78
2022/09/28 13:12:54;;;;;;;0.00;0.00;;;16.50;99.90;;;;;;5006296;28;20069;-77
2022/09/28 13:15:35;;;;;;;0.30;0.00;;;16.50;99.90;;;;;;5007744;28;20125;-78
2022/09/28 13:18:33;;;;;;;1.30;0.05;;;16.50;99.90;;;;;;5036541;28;20405;-78
2022/09/28 13:21:23;;;;;;;0.00;0.00;;;16.60;99.90;;;;;;5028323;28;20049;-77
2022/09/28 13:23:51;;;;;;;0.28;0.00;;;16.70;99.90;;;;;;5032174;28;20504;-77
2022/09/28 13:26:24;;;;;;;0.10;0.00;;;16.70;99.90;;;;;;5001198;28;20033;-76
2022/09/28 13:28:53;;;;;;;0.35;0.00;;;16.70;99.90;;;;;;5054187;28;20058;-77